Time;durP1;ratioP1;P1;durP2;ratioP2;P2;SDS_P1;SDS_P2;PMS_P1;PMS_P2;Temp;Humidity;BMP_temperature;BMP_pressure;BME280_temperature;BME280_humidity;BME280_pressure;Samples;Min_cycle;Max_cycle;Signal;HPM_P1;HPM_P2
2023/09/29 00:01:27;;;;;;;15.00;8.30;;;14.90;99.90;;;;;;4955177;29;20082;-70
2023/09/29 00:03:53;;;;;;;15.38;7.85;;;14.90;99.90;;;;;;4955169;28;20031;-71
2023/09/29 00:06:19;;;;;;;17.55;8.05;;;14.80;99.90;;;;;;4955091;29;20027;-71
2023/09/29 00:08:45;;;;;;;15.75;7.93;;;14.90;99.90;;;;;;4938026;29;20034;-70
2023/09/29 00:11:14;;;;;;;16.00;7.97;;;14.90;99.90;;;;;;4954711;29;20023;-72
2023/09/29 00:13:40;;;;;;;14.55;6.90;;;14.90;99.90;;;;;;4955284;29;20055;-70
2023/09/29 00:16:06;;;;;;;18.38;8.43;;;15.00;99.90;;;;;;4954851;29;20035;-73
2023/09/29 00:18:33;;;;;;;17.38;8.00;;;15.00;99.90;;;;;;4955096;29;20095;-73
2023/09/29 00:20:59;;;;;;;15.25;7.85;;;14.90;99.90;;;;;;4954984;29;20038;-70
2023/09/29 00:23:25;;;;;;;15.13;7.88;;;14.90;99.90;;;;;;4955028;28;20040;-73
2023/09/29 00:25:50;;;;;;;14.63;7.93;;;14.90;99.90;;;;;;4953301;29;20093;-73
2023/09/29 00:28:16;;;;;;;15.70;7.50;;;14.90;99.90;;;;;;4955075;29;20030;-72
2023/09/29 00:30:42;;;;;;;16.70;7.32;;;14.90;99.90;;;;;;4937537;29;20039;-73
2023/09/29 00:33:08;;;;;;;15.80;8.23;;;14.80;99.90;;;;;;4954973;29;20024;-73
2023/09/29 00:35:34;;;;;;;15.25;7.75;;;14.80;99.90;;;;;;4955085;29;20063;-70
2023/09/29 00:38:01;;;;;;;18.83;8.25;;;14.90;99.90;;;;;;4954938;29;20019;-73
2023/09/29 00:40:28;;;;;;;15.63;7.95;;;14.90;99.90;;;;;;4953455;28;20027;-73
2023/09/29 00:42:55;;;;;;;12.02;6.90;;;14.80;99.90;;;;;;4953495;29;20051;-74
2023/09/29 00:45:25;;;;;;;15.48;7.90;;;14.70;99.90;;;;;;4952983;28;20487;-73
2023/09/29 00:47:57;;;;;;;13.77;6.65;;;14.80;99.90;;;;;;4937499;29;20110;-72
2023/09/29 00:50:28;;;;;;;14.55;7.13;;;14.70;99.90;;;;;;4954763;29;20109;-74
2023/09/29 00:52:58;;;;;;;13.85;6.90;;;14.70;99.90;;;;;;4954725;29;20033;-74
2023/09/29 00:55:27;;;;;;;13.25;6.32;;;14.70;99.90;;;;;;4954692;29;20042;-71
2023/09/29 00:57:56;;;;;;;14.27;7.90;;;14.60;99.90;;;;;;4954609;29;20027;-72
2023/09/29 01:02:55;;;;;;;14.25;7.20;;;14.60;99.90;;;;;;4937239;29;20117;-71
2023/09/29 01:05:21;;;;;;;16.30;6.82;;;14.60;99.90;;;;;;4937373;29;20098;-70
2023/09/29 01:07:47;;;;;;;14.82;6.78;;;14.60;99.90;;;;;;4953386;29;20050;-72
2023/09/29 01:10:13;;;;;;;11.45;6.30;;;14.60;99.90;;;;;;4953049;28;20110;-70
2023/09/29 01:12:40;;;;;;;15.23;7.10;;;14.60;99.90;;;;;;4954312;29;20023;-71
2023/09/29 01:15:07;;;;;;;14.07;6.50;;;14.50;99.90;;;;;;4937959;29;20069;-72
2023/09/29 01:17:33;;;;;;;15.23;6.35;;;14.40;99.90;;;;;;4956752;28;20046;-72
2023/09/29 01:19:59;;;;;;;14.25;7.25;;;14.50;99.90;;;;;;4937867;29;20039;-72
2023/09/29 01:22:26;;;;;;;9.80;6.07;;;14.40;99.90;;;;;;4937838;29;20529;-71
2023/09/29 01:24:51;;;;;;;11.05;6.05;;;14.40;99.90;;;;;;4932468;29;20039;-71
2023/09/29 01:27:17;;;;;;;11.10;6.30;;;14.50;99.90;;;;;;4957795;29;20040;-74
2023/09/29 01:29:43;;;;;;;11.98;6.80;;;14.50;99.90;;;;;;4958104;29;20031;-73
2023/09/29 01:32:14;;;;;;;14.93;7.05;;;14.50;99.90;;;;;;4956408;29;20046;-71
2023/09/29 01:34:40;;;;;;;16.48;7.38;;;14.50;99.90;;;;;;4958047;29;20031;-73
2023/09/29 01:37:07;;;;;;;18.65;7.55;;;14.40;99.90;;;;;;4940074;29;20047;-71
2023/09/29 01:39:34;;;;;;;14.52;6.97;;;14.50;99.90;;;;;;4957828;29;20498;-72
2023/09/29 01:42:00;;;;;;;13.38;7.07;;;14.40;99.90;;;;;;4957418;29;20019;-73
2023/09/29 01:44:26;;;;;;;11.80;7.10;;;14.40;99.90;;;;;;4956710;29;20057;-71
2023/09/29 01:46:51;;;;;;;24.10;7.57;;;14.30;99.90;;;;;;4955534;28;20435;-71
2023/09/29 01:49:17;;;;;;;14.02;7.82;;;14.40;99.90;;;;;;4957823;29;20376;-71
2023/09/29 01:51:46;;;;;;;14.57;7.35;;;14.30;99.90;;;;;;4940474;29;20035;-71
2023/09/29 01:54:12;;;;;;;14.32;7.85;;;14.30;99.90;;;;;;4957772;29;20031;-71
2023/09/29 01:56:38;;;;;;;12.55;6.70;;;14.30;99.90;;;;;;4939754;29;20027;-73
2023/09/29 01:59:04;;;;;;;14.52;6.53;;;14.30;99.90;;;;;;4940244;29;20054;-71
2023/09/29 02:01:34;;;;;;;16.02;7.03;;;14.30;99.90;;;;;;4956182;28;20476;-71
2023/09/29 02:04:00;;;;;;;14.05;7.88;;;14.30;99.90;;;;;;4956222;29;20492;-71
2023/09/29 02:06:27;;;;;;;15.45;7.18;;;14.30;99.90;;;;;;4940194;29;20479;-73
2023/09/29 02:08:53;;;;;;;11.23;6.40;;;14.20;99.90;;;;;;4957382;29;20082;-72
2023/09/29 02:11:19;;;;;;;15.10;6.63;;;14.20;99.90;;;;;;4957014;29;20468;-72
2023/09/29 02:13:44;;;;;;;14.85;6.82;;;14.20;99.90;;;;;;4956198;29;20065;-71
2023/09/29 02:16:11;;;;;;;15.10;6.80;;;14.20;99.90;;;;;;4955779;29;20023;-71
2023/09/29 02:18:38;;;;;;;13.30;7.20;;;14.20;99.90;;;;;;4955883;29;20042;-73
2023/09/29 02:21:09;;;;;;;12.95;6.53;;;14.20;99.90;;;;;;4955608;29;20029;-71
2023/09/29 02:23:35;;;;;;;14.25;6.82;;;14.30;99.90;;;;;;4956932;29;20395;-71
2023/09/29 02:26:02;;;;;;;13.57;6.70;;;14.30;99.90;;;;;;4955604;28;20031;-73
2023/09/29 02:28:31;;;;;;;11.85;6.03;;;14.20;99.90;;;;;;4955638;29;20039;-70
2023/09/29 02:31:03;;;;;;;10.35;5.05;;;14.30;99.90;;;;;;4955641;29;20038;-73
2023/09/29 02:33:31;;;;;;;9.48;5.65;;;14.20;99.90;;;;;;4956818;29;20106;-71
2023/09/29 02:35:57;;;;;;;19.92;6.45;;;14.10;99.90;;;;;;4956613;29;20015;-72
2023/09/29 02:38:24;;;;;;;14.15;6.95;;;14.10;99.90;;;;;;4956838;29;20454;-71
2023/09/29 02:40:50;;;;;;;13.82;6.88;;;14.10;99.90;;;;;;4936165;29;20024;-71
2023/09/29 02:43:16;;;;;;;13.95;6.30;;;14.10;99.90;;;;;;4938103;29;20118;-72
2023/09/29 02:45:42;;;;;;;10.07;6.00;;;14.00;99.90;;;;;;4940766;28;20550;-72
2023/09/29 02:48:10;;;;;;;15.35;7.28;;;14.00;99.90;;;;;;4965203;28;20376;-71
2023/09/29 02:50:36;;;;;;;16.25;7.25;;;14.00;99.90;;;;;;4955138;28;20025;-73
2023/09/29 02:53:02;;;;;;;11.73;6.75;;;14.00;99.90;;;;;;4956526;29;20076;-73
2023/09/29 02:55:29;;;;;;;12.10;6.35;;;14.00;99.90;;;;;;4939068;28;20055;-71
2023/09/29 02:57:55;;;;;;;12.38;6.65;;;14.00;99.90;;;;;;4936020;29;20034;-71
2023/09/29 03:00:26;;;;;;;14.55;6.72;;;13.90;99.90;;;;;;4935109;29;20023;-73
2023/09/29 03:02:53;;;;;;;15.30;7.55;;;13.80;99.90;;;;;;4965492;28;20035;-73
2023/09/29 03:05:21;;;;;;;12.88;7.72;;;13.90;99.90;;;;;;4939013;29;20118;-73
2023/09/29 03:07:47;;;;;;;18.02;7.05;;;13.80;99.90;;;;;;4956214;29;20090;-71
2023/09/29 03:10:14;;;;;;;14.20;7.35;;;13.80;99.90;;;;;;4938706;29;20479;-73
2023/09/29 03:12:41;;;;;;;13.43;7.57;;;13.80;99.90;;;;;;4938907;29;20078;-73
2023/09/29 03:15:11;;;;;;;13.98;7.10;;;13.80;99.90;;;;;;4955887;29;20031;-71
2023/09/29 03:17:37;;;;;;;12.95;6.95;;;13.80;99.90;;;;;;4948723;29;20039;-71
2023/09/29 03:20:10;;;;;;;14.00;6.38;;;13.80;99.90;;;;;;4954735;28;20463;-73
2023/09/29 03:22:38;;;;;;;15.00;7.57;;;13.80;99.90;;;;;;4935739;29;20043;-73
2023/09/29 03:25:05;;;;;;;12.23;6.22;;;13.80;99.90;;;;;;4951035;29;20038;-73
2023/09/29 03:27:31;;;;;;;13.90;7.30;;;13.70;99.90;;;;;;4956147;29;20051;-71
2023/09/29 03:30:00;;;;;;;13.18;7.00;;;;;;;;;;4955637;29;20031;-73
2023/09/29 03:32:26;;;;;;;15.80;7.53;;;13.70;99.90;;;;;;4955908;29;20050;-73
2023/09/29 03:34:53;;;;;;;11.88;6.45;;;;;;;;;;4955713;29;20121;-72
2023/09/29 03:37:19;;;;;;;11.65;6.72;;;;;;;;;;4955593;28;20031;-73
2023/09/29 03:39:48;;;;;;;10.75;5.80;;;;;;;;;;4934678;29;20059;-73
2023/09/29 03:42:14;;;;;;;14.15;6.88;;;;;;;;;;4951075;29;20023;-74
2023/09/29 03:44:40;;;;;;;16.33;6.95;;;;;;;;;;4949450;29;20035;-73
2023/09/29 03:47:07;;;;;;;13.48;7.35;;;;;;;;;;4955094;29;20395;-73
2023/09/29 03:49:35;;;;;;;14.50;7.43;;;;;;;;;;4955485;29;20086;-73
2023/09/29 03:52:01;;;;;;;15.98;7.47;;;;;;;;;;4942933;29;20058;-71
2023/09/29 03:54:27;;;;;;;16.08;7.93;;;;;;;;;;4934872;29;20028;-71
2023/09/29 03:56:53;;;;;;;15.60;8.75;;;;;;;;;;4942884;29;20023;-71
2023/09/29 03:59:19;;;;;;;19.42;10.65;;;;;;;;;;4955100;29;20023;-71
2023/09/29 04:01:47;;;;;;;14.45;7.93;;;;;;;;;;4954493;29;20368;-71
2023/09/29 04:04:13;;;;;;;17.33;7.72;;;;;;;;;;4943507;29;20031;-72
2023/09/29 04:06:39;;;;;;;17.23;9.82;;;13.70;99.90;;;;;;4942522;29;20028;-71
2023/09/29 04:09:05;;;;;;;18.85;9.65;;;13.80;99.90;;;;;;4953756;28;20106;-71
2023/09/29 04:11:31;;;;;;;20.73;10.82;;;13.80;99.90;;;;;;4949381;29;20031;-69
2023/09/29 04:13:57;;;;;;;17.92;9.43;;;13.90;99.90;;;;;;4951031;29;20476;-74
2023/09/29 04:16:23;;;;;;;23.17;11.40;;;13.80;99.90;;;;;;4954689;29;20078;-71
2023/09/29 04:18:48;;;;;;;16.75;10.75;;;13.80;99.90;;;;;;4939418;29;20044;-71
2023/09/29 04:21:15;;;;;;;22.58;13.52;;;13.80;99.90;;;;;;4955211;29;20028;-71
2023/09/29 04:23:41;;;;;;;19.45;11.82;;;13.80;99.90;;;;;;4954891;29;20475;-73
2023/09/29 04:26:19;;;;;;;17.63;11.93;;;13.80;99.90;;;;;;4954931;29;20034;-70
2023/09/29 04:28:45;;;;;;;19.95;12.85;;;13.80;99.90;;;;;;4953492;29;20096;-71
2023/09/29 04:31:12;;;;;;;19.67;11.90;;;13.90;99.90;;;;;;4954830;29;20031;-73
2023/09/29 04:33:40;;;;;;;20.83;11.88;;;13.90;99.90;;;;;;4954790;29;20042;-71
2023/09/29 04:36:06;;;;;;;17.85;11.60;;;13.90;99.90;;;;;;4955119;29;20513;-71
2023/09/29 04:38:33;;;;;;;21.42;12.55;;;13.90;99.90;;;;;;4954508;29;20038;-70
2023/09/29 04:40:59;;;;;;;22.00;11.95;;;13.90;99.90;;;;;;4955091;29;20526;-72
2023/09/29 04:43:28;;;;;;;18.45;11.18;;;13.90;99.90;;;;;;4954469;29;20043;-71
2023/09/29 04:45:55;;;;;;;17.58;9.77;;;13.90;99.90;;;;;;4954856;29;20031;-71
2023/09/29 04:48:21;;;;;;;19.48;11.00;;;13.90;99.90;;;;;;4954705;29;20075;-72
2023/09/29 04:50:47;;;;;;;22.55;12.07;;;13.90;99.90;;;;;;4956415;28;20042;-73
2023/09/29 04:53:13;;;;;;;21.92;10.65;;;13.90;99.90;;;;;;4958093;29;20107;-71
2023/09/29 04:55:39;;;;;;;22.92;10.75;;;13.90;99.90;;;;;;4958587;29;20031;-71
2023/09/29 04:58:04;;;;;;;16.05;9.43;;;14.00;99.90;;;;;;4958358;29;20035;-71
2023/09/29 05:00:30;;;;;;;24.40;12.13;;;14.20;99.90;;;;;;4958379;29;20023;-72
2023/09/29 05:02:56;;;;;;;17.45;10.20;;;14.50;99.90;;;;;;4958331;29;20038;-71
2023/09/29 05:05:22;;;;;;;21.25;9.98;;;14.80;99.90;;;;;;4958450;29;20043;-71
2023/09/29 05:07:48;;;;;;;20.33;10.40;;;15.10;99.90;;;;;;4958213;29;20451;-70
2023/09/29 05:10:13;;;;;;;17.40;10.38;;;15.50;99.90;;;;;;4958577;29;20475;-70
2023/09/29 05:12:40;;;;;;;21.65;10.43;;;15.80;99.90;;;;;;4958431;29;20031;-70
2023/09/29 05:15:08;;;;;;;18.20;10.57;;;16.00;99.90;;;;;;4958303;29;20034;-70
2023/09/29 05:17:34;;;;;;;23.05;10.70;;;16.40;99.90;;;;;;4958468;29;20035;-70
2023/09/29 05:20:00;;;;;;;18.23;10.73;;;16.60;99.90;;;;;;4958475;29;20023;-70
2023/09/29 05:22:26;;;;;;;19.85;11.20;;;16.80;99.90;;;;;;4957923;29;20504;-71
2023/09/29 05:24:55;;;;;;;25.83;12.50;;;17.20;99.90;;;;;;4958164;29;20073;-70
2023/09/29 05:27:20;;;;;;;23.63;14.13;;;17.40;99.90;;;;;;4957950;29;20042;-71
2023/09/29 05:29:46;;;;;;;33.15;12.88;;;17.60;99.90;;;;;;4958022;29;20027;-74
2023/09/29 05:32:12;;;;;;;19.05;12.02;;;17.90;99.90;;;;;;4957791;29;20090;-71
2023/09/29 05:34:39;;;;;;;24.08;12.05;;;;;;;;;;4958161;29;20110;-72
2023/09/29 05:37:05;;;;;;;20.88;10.80;;;;;;;;;;4957910;29;20491;-71
2023/09/29 05:39:32;;;;;;;22.75;10.70;;;;;;;;;;4958305;29;20031;-72
2023/09/29 05:41:58;;;;;;;23.10;10.00;;;;;;;;;;4957762;29;20027;-72
2023/09/29 05:44:24;;;;;;;19.23;10.35;;;19.10;99.90;;;;;;4957624;29;20059;-72
2023/09/29 05:46:50;;;;;;;20.52;9.38;;;19.30;99.90;;;;;;4940262;29;20058;-71
2023/09/29 05:49:16;;;;;;;16.13;9.93;;;19.50;99.90;;;;;;4957990;29;20507;-72
2023/09/29 05:51:41;;;;;;;19.20;9.98;;;19.20;99.90;;;;;;4957531;29;20066;-71
2023/09/29 05:54:07;;;;;;;16.42;10.27;;;18.50;99.90;;;;;;4956252;29;20074;-73
2023/09/29 05:56:33;;;;;;;19.25;10.40;;;18.10;99.90;;;;;;4957514;29;20031;-71
2023/09/29 05:59:00;;;;;;;18.40;9.93;;;17.90;99.90;;;;;;4957625;29;20023;-71
2023/09/29 06:01:26;;;;;;;18.95;10.98;;;17.70;99.90;;;;;;4957082;28;20489;-72
2023/09/29 06:03:52;;;;;;;18.10;9.55;;;17.60;99.90;;;;;;4957544;29;20035;-71
2023/09/29 06:06:18;;;;;;;16.27;10.18;;;17.50;99.90;;;;;;4957156;29;20034;-71
2023/09/29 06:08:44;;;;;;;20.48;9.70;;;17.30;99.90;;;;;;4957439;29;20490;-71
2023/09/29 06:11:11;;;;;;;17.13;9.65;;;17.20;99.90;;;;;;4957373;29;20024;-71
2023/09/29 06:13:40;;;;;;;16.15;9.20;;;17.20;99.90;;;;;;4957231;29;20106;-71
2023/09/29 06:16:06;;;;;;;26.58;9.20;;;17.20;99.90;;;;;;4957134;29;20114;-71
2023/09/29 06:18:32;;;;;;;17.98;9.00;;;17.20;99.90;;;;;;4957226;29;20119;-71
2023/09/29 06:20:58;;;;;;;19.30;8.68;;;17.20;99.90;;;;;;4957216;29;20039;-71
2023/09/29 06:23:24;;;;;;;18.63;9.52;;;17.20;99.90;;;;;;4957174;29;20411;-75
2023/09/29 06:26:07;;;;;;;16.25;8.73;;;17.20;99.90;;;;;;4956735;29;20110;-71
2023/09/29 06:28:33;;;;;;;20.27;9.38;;;17.20;99.90;;;;;;4956944;29;20034;-71
2023/09/29 06:30:59;;;;;;;19.42;10.52;;;17.20;99.90;;;;;;4957003;29;20386;-71
2023/09/29 06:33:28;;;;;;;23.55;10.52;;;17.10;99.90;;;;;;4956829;29;20103;-71
2023/09/29 06:35:54;;;;;;;16.00;9.75;;;17.20;99.90;;;;;;4957025;29;20475;-71
2023/09/29 06:38:20;;;;;;;16.05;9.57;;;17.20;99.90;;;;;;4956777;29;20027;-72
2023/09/29 06:40:46;;;;;;;20.23;10.25;;;17.30;99.90;;;;;;4956942;29;20027;-71
2023/09/29 06:43:12;;;;;;;18.67;9.27;;;17.40;99.90;;;;;;4956700;29;20032;-71
2023/09/29 06:45:38;;;;;;;16.85;9.40;;;17.40;99.90;;;;;;4956582;29;20118;-71
2023/09/29 06:48:04;;;;;;;20.92;9.90;;;17.50;99.90;;;;;;4968550;28;20395;-71
2023/09/29 06:50:30;;;;;;;20.00;10.00;;;17.70;99.90;;;;;;4956697;29;20031;-71
2023/09/29 06:52:56;;;;;;;17.88;10.25;;;17.80;99.90;;;;;;4956532;29;20030;-71
2023/09/29 06:55:22;;;;;;;16.88;10.00;;;17.80;99.90;;;;;;4956444;29;20031;-71
2023/09/29 06:57:48;;;;;;;20.88;9.07;;;18.00;99.90;;;;;;4956512;28;20028;-71
2023/09/29 07:00:14;;;;;;;21.88;9.27;;;18.00;99.90;;;;;;4956385;29;20035;-71
2023/09/29 07:02:40;;;;;;;16.38;8.68;;;18.10;99.90;;;;;;4956373;29;20051;-71
2023/09/29 07:05:06;;;;;;;19.67;9.18;;;18.30;99.90;;;;;;4956393;29;20442;-72
2023/09/29 07:07:33;;;;;;;18.02;9.60;;;18.30;99.90;;;;;;4956101;29;20391;-72
2023/09/29 07:09:59;;;;;;;16.02;7.85;;;18.50;99.90;;;;;;4956291;29;20027;-71
2023/09/29 07:12:25;;;;;;;16.40;9.15;;;18.50;99.90;;;;;;4955994;28;20086;-72
2023/09/29 07:14:51;;;;;;;21.15;8.80;;;18.80;99.90;;;;;;4955813;29;20034;-74
2023/09/29 07:17:17;;;;;;;15.57;7.22;;;18.80;99.90;;;;;;4955885;29;20094;-71
2023/09/29 07:19:43;;;;;;;15.50;7.57;;;18.80;99.90;;;;;;4956291;29;20030;-72
2023/09/29 07:22:09;;;;;;;12.50;7.15;;;19.00;99.90;;;;;;4956412;29;20035;-72
2023/09/29 07:24:41;;;;;;;16.17;6.53;;;18.90;99.90;;;;;;4955884;29;20054;-73
2023/09/29 07:27:08;;;;;;;11.45;6.18;;;19.10;99.90;;;;;;4955824;29;20026;-71
2023/09/29 07:29:35;;;;;;;19.60;6.30;;;19.20;99.90;;;;;;4955580;29;20027;-72
2023/09/29 07:32:00;;;;;;;11.57;6.15;;;19.20;99.90;;;;;;4955790;29;20027;-72
2023/09/29 07:34:27;;;;;;;14.20;6.43;;;19.40;99.90;;;;;;4955613;29;20038;-71
2023/09/29 07:36:54;;;;;;;13.50;7.22;;;19.50;99.90;;;;;;4955802;29;20394;-74
2023/09/29 07:39:20;;;;;;;15.80;7.07;;;19.70;99.90;;;;;;4955778;29;20023;-72
2023/09/29 07:41:46;;;;;;;13.70;5.47;;;19.80;99.90;;;;;;4955294;29;20034;-71
2023/09/29 07:44:12;;;;;;;11.25;6.88;;;19.90;99.90;;;;;;4955716;29;20506;-71
2023/09/29 07:46:38;;;;;;;14.38;6.95;;;20.00;99.90;;;;;;4955499;29;20047;-71
2023/09/29 07:49:05;;;;;;;18.67;6.35;;;20.10;99.90;;;;;;4955531;29;20086;-71
2023/09/29 07:51:32;;;;;;;12.80;6.70;;;20.10;99.90;;;;;;4955470;29;20075;-71
2023/09/29 07:53:58;;;;;;;15.05;7.20;;;20.30;99.90;;;;;;4955423;29;20094;-71
2023/09/29 07:56:24;;;;;;;20.90;7.10;;;20.40;99.90;;;;;;4955397;29;20028;-74
2023/09/29 07:58:51;;;;;;;15.55;6.40;;;20.50;99.90;;;;;;4955514;29;20027;-71
2023/09/29 08:01:18;;;;;;;14.90;6.53;;;;;;;;;;4953635;29;20046;-71
2023/09/29 08:03:44;;;;;;;13.18;6.53;;;20.70;99.90;;;;;;4955558;29;20031;-73
2023/09/29 08:06:10;;;;;;;17.45;6.78;;;;;;;;;;4955106;29;20467;-71
2023/09/29 08:08:36;;;;;;;21.08;6.38;;;;;;;;;;4955127;29;20109;-70
2023/09/29 08:11:02;;;;;;;12.77;5.50;;;21.00;99.90;;;;;;4954890;29;20027;-71
2023/09/29 08:13:28;;;;;;;15.73;5.85;;;21.10;99.90;;;;;;4955454;29;20167;-71
2023/09/29 08:15:54;;;;;;;15.63;5.25;;;21.30;99.90;;;;;;4955156;29;20023;-74
2023/09/29 08:18:20;;;;;;;13.60;4.97;;;21.50;99.90;;;;;;4955337;29;20097;-71
2023/09/29 08:20:51;;;;;;;10.80;5.40;;;21.70;99.90;;;;;;4955435;29;20470;-71
2023/09/29 08:23:16;;;;;;;10.90;5.60;;;21.70;99.90;;;;;;4955119;29;20024;-71
2023/09/29 08:25:43;;;;;;;14.30;5.43;;;21.70;99.90;;;;;;4954589;28;20505;-71
2023/09/29 08:28:09;;;;;;;15.43;6.38;;;21.80;99.90;;;;;;4954739;29;20550;-71
2023/09/29 08:30:35;;;;;;;11.90;5.47;;;;;;;;;;4954958;29;20027;-71
2023/09/29 08:33:02;;;;;;;13.07;6.13;;;21.80;99.40;;;;;;4954565;29;20482;-71
2023/09/29 08:35:28;;;;;;;14.23;5.32;;;22.00;97.50;;;;;;4954777;29;20031;-70
2023/09/29 08:37:54;;;;;;;10.10;5.07;;;22.00;98.60;;;;;;4954786;29;20042;-73
2023/09/29 08:40:20;;;;;;;9.25;5.20;;;22.40;99.90;;;;;;4954846;29;20074;-71
2023/09/29 08:42:49;;;;;;;10.48;5.40;;;22.50;98.80;;;;;;4955138;29;20039;-73
2023/09/29 08:45:17;;;;;;;13.95;6.78;;;22.60;98.50;;;;;;4954595;29;20035;-71
2023/09/29 08:47:52;;;;;;;15.88;6.13;;;22.60;96.80;;;;;;4954704;29;20047;-71
2023/09/29 08:50:22;;;;;;;17.77;6.20;;;22.70;97.40;;;;;;4954852;29;20031;-71
2023/09/29 08:52:49;;;;;;;12.23;5.60;;;;;;;;;;4954802;29;20027;-71
2023/09/29 08:55:16;;;;;;;12.25;6.05;;;23.00;96.50;;;;;;4942447;29;20566;-73
2023/09/29 08:57:43;;;;;;;11.43;5.85;;;;;;;;;;4954574;29;20166;-71
2023/09/29 09:00:13;;;;;;;15.60;5.80;;;23.10;94.80;;;;;;4954712;29;20031;-71
2023/09/29 09:02:43;;;;;;;18.60;6.53;;;;;;;;;;4954636;29;20019;-73
2023/09/29 09:05:14;;;;;;;16.25;6.05;;;;;;;;;;4953384;29;20062;-70
2023/09/29 09:07:41;;;;;;;10.77;5.72;;;23.50;99.90;;;;;;4954762;29;20058;-70
2023/09/29 09:10:09;;;;;;;19.20;5.55;;;24.80;99.90;;;;;;4954718;29;20510;-71
2023/09/29 09:12:36;;;;;;;16.95;5.57;;;23.50;96.80;;;;;;4954867;29;20028;-70
2023/09/29 09:15:05;;;;;;;14.00;5.47;;;23.70;98.30;;;;;;4954697;29;20028;-70
2023/09/29 09:17:34;;;;;;;18.35;5.65;;;;;;;;;;4954313;29;20031;-70
2023/09/29 09:20:01;;;;;;;15.98;5.75;;;;;;;;;;4954691;29;20034;-70
2023/09/29 09:22:32;;;;;;;11.35;4.80;;;23.70;93.90;;;;;;4954492;29;20082;-70
2023/09/29 09:25:02;;;;;;;13.07;5.72;;;23.80;92.00;;;;;;4954511;29;20054;-70
2023/09/29 09:27:41;;;;;;;16.35;5.05;;;23.80;91.10;;;;;;4954372;29;20531;-71
2023/09/29 09:30:18;;;;;;;14.80;5.78;;;;;;;;;;4954214;29;20038;-70
2023/09/29 09:32:46;;;;;;;14.68;5.68;;;24.20;99.80;;;;;;4954557;29;20023;-70
2023/09/29 09:35:22;;;;;;;18.52;6.18;;;24.00;91.00;;;;;;4954300;29;20032;-70
2023/09/29 09:37:51;;;;;;;12.75;5.93;;;24.00;92.80;;;;;;4957437;29;20050;-72
2023/09/29 09:40:19;;;;;;;19.48;6.45;;;24.10;87.60;;;;;;4956159;29;20035;-70
2023/09/29 09:42:46;;;;;;;10.95;5.40;;;24.10;93.40;;;;;;4957791;29;20043;-72
2023/09/29 09:45:13;;;;;;;13.70;5.22;;;24.20;90.70;;;;;;4957896;29;20039;-71
2023/09/29 09:47:45;;;;;;;10.00;5.28;;;24.30;92.10;;;;;;4957778;29;20053;-70
2023/09/29 09:50:13;;;;;;;13.88;6.25;;;24.40;89.20;;;;;;4957853;29;20414;-72
2023/09/29 09:52:42;;;;;;;11.13;4.97;;;24.50;89.00;;;;;;4957745;29;20484;-69
2023/09/29 09:55:15;;;;;;;22.27;5.72;;;24.50;87.90;;;;;;4957438;29;20027;-72
2023/09/29 09:57:45;;;;;;;10.68;5.13;;;24.60;87.40;;;;;;4957404;29;20027;-70
2023/09/29 10:00:13;;;;;;;13.60;5.30;;;24.60;85.70;;;;;;4956258;29;20062;-70
2023/09/29 10:02:51;;;;;;;17.55;5.90;;;24.60;87.10;;;;;;4957621;29;20094;-73
2023/09/29 10:05:25;;;;;;;16.30;5.10;;;;;;;;;;4957625;29;20073;-69
2023/09/29 10:07:53;;;;;;;11.18;5.65;;;;;;;;;;4957554;29;20023;-70
2023/09/29 10:10:33;;;;;;;15.25;5.47;;;24.90;82.20;;;;;;4957438;29;20055;-70
2023/09/29 10:13:04;;;;;;;12.00;5.00;;;;;;;;;;4956958;29;20110;-70
2023/09/29 10:15:30;;;;;;;18.23;5.32;;;25.10;84.00;;;;;;4940057;29;20050;-70
2023/09/29 10:18:01;;;;;;;12.27;4.15;;;25.10;83.00;;;;;;4957364;29;20030;-70
2023/09/29 10:20:30;;;;;;;10.35;4.30;;;25.20;79.10;;;;;;4957137;29;20392;-70
2023/09/29 10:23:13;;;;;;;13.52;4.68;;;25.10;78.70;;;;;;4957201;29;20023;-70
2023/09/29 10:25:42;;;;;;;9.55;4.38;;;25.00;81.50;;;;;;4956766;29;20038;-70
2023/09/29 10:28:08;;;;;;;9.55;4.95;;;25.00;81.20;;;;;;4957184;29;20019;-71
2023/09/29 10:30:35;;;;;;;18.95;5.05;;;;;;;;;;4956713;29;20094;-71
2023/09/29 10:33:12;;;;;;;9.85;4.65;;;26.20;88.00;;;;;;4956957;29;20019;-71
2023/09/29 10:35:46;;;;;;;10.18;4.75;;;25.40;79.00;;;;;;4956772;29;20098;-72
2023/09/29 10:38:24;;;;;;;11.18;4.60;;;25.40;81.40;;;;;;4956825;29;20113;-72
2023/09/29 10:40:50;;;;;;;11.07;4.47;;;25.40;78.50;;;;;;4956948;29;20107;-71
2023/09/29 10:43:26;;;;;;;9.43;4.63;;;25.50;78.90;;;;;;4956823;29;20055;-72
2023/09/29 10:45:52;;;;;;;15.85;5.93;;;25.40;76.60;;;;;;4958461;28;20043;-71
2023/09/29 10:48:21;;;;;;;14.82;4.85;;;25.20;75.00;;;;;;4965371;28;20082;-73
2023/09/29 10:50:52;;;;;;;16.23;5.03;;;25.50;78.80;;;;;;4956699;29;20038;-71
2023/09/29 10:53:21;;;;;;;17.58;4.60;;;25.50;76.20;;;;;;4956326;29;20069;-71
2023/09/29 10:55:52;;;;;;;20.13;5.32;;;25.50;74.00;;;;;;4956312;28;20031;-71
2023/09/29 10:58:21;;;;;;;12.82;4.82;;;25.60;78.10;;;;;;4956544;29;20082;-71
2023/09/29 11:00:52;;;;;;;11.90;4.35;;;25.80;78.60;;;;;;4956026;29;20109;-71
2023/09/29 11:03:26;;;;;;;16.20;4.93;;;25.80;75.60;;;;;;4956444;29;20035;-71
2023/09/29 11:06:18;;;;;;;19.08;3.95;;;25.80;73.50;;;;;;4956363;29;20035;-71
2023/09/29 11:08:52;;;;;;;16.33;4.75;;;25.80;74.60;;;;;;4954626;28;20035;-71
2023/09/29 11:11:18;;;;;;;11.25;4.90;;;25.80;75.50;;;;;;4956321;29;20131;-71
2023/09/29 11:13:51;;;;;;;14.30;4.88;;;25.90;74.10;;;;;;4955825;29;20098;-71
2023/09/29 11:16:17;;;;;;;10.63;4.25;;;25.80;72.70;;;;;;4956335;29;20034;-71
2023/09/29 11:18:46;;;;;;;11.80;4.43;;;25.90;74.80;;;;;;4956268;29;20024;-72
2023/09/29 11:21:12;;;;;;;9.07;4.15;;;25.90;72.70;;;;;;4956301;29;20027;-70
2023/09/29 11:23:47;;;;;;;12.07;3.83;;;25.80;73.00;;;;;;4934419;29;20396;-71
2023/09/29 11:26:15;;;;;;;12.65;4.45;;;25.70;72.70;;;;;;4949728;29;20047;-70
2023/09/29 11:28:47;;;;;;;12.10;4.40;;;25.80;71.30;;;;;;4956189;29;20027;-71
2023/09/29 11:31:17;;;;;;;13.32;4.65;;;25.70;71.00;;;;;;4955926;29;20175;-73
2023/09/29 11:33:44;;;;;;;17.88;4.53;;;25.80;71.40;;;;;;4955892;29;20031;-71
2023/09/29 11:36:14;;;;;;;16.05;4.82;;;25.70;70.00;;;;;;4955501;29;20035;-70
2023/09/29 11:38:40;;;;;;;12.73;3.90;;;25.70;69.80;;;;;;4955697;29;20049;-70
2023/09/29 11:41:06;;;;;;;9.77;3.97;;;25.80;69.60;;;;;;4955929;29;20034;-70
2023/09/29 11:43:33;;;;;;;10.25;3.20;;;25.90;72.40;;;;;;4951666;29;20157;-72
2023/09/29 11:45:59;;;;;;;8.25;3.58;;;26.00;66.20;;;;;;4947123;29;20110;-72
2023/09/29 11:48:25;;;;;;;14.98;3.90;;;26.00;66.70;;;;;;4937903;29;20122;-70
2023/09/29 11:50:54;;;;;;;13.38;4.03;;;26.10;67.70;;;;;;4956129;29;20034;-70
2023/09/29 11:53:20;;;;;;;7.63;3.92;;;26.20;70.20;;;;;;4955223;29;20058;-70
2023/09/29 11:55:47;;;;;;;14.52;3.42;;;26.10;68.70;;;;;;4955757;29;20019;-70
2023/09/29 11:58:13;;;;;;;7.65;3.53;;;26.20;69.80;;;;;;4955111;29;20031;-70
2023/09/29 12:00:42;;;;;;;14.18;4.47;;;26.30;71.00;;;;;;4955216;28;20029;-70
2023/09/29 12:03:08;;;;;;;20.42;4.80;;;26.40;80.30;;;;;;4955382;29;20553;-70
2023/09/29 12:05:35;;;;;;;14.15;4.30;;;26.20;80.20;;;;;;4955143;29;20031;-71
2023/09/29 12:08:04;;;;;;;9.98;3.97;;;26.20;81.10;;;;;;4955131;29;20038;-71
2023/09/29 12:10:30;;;;;;;11.38;4.05;;;26.20;79.50;;;;;;4955356;29;20035;-71
2023/09/29 12:13:00;;;;;;;16.20;3.80;;;26.30;80.50;;;;;;4955362;29;20030;-71
2023/09/29 12:15:26;;;;;;;14.23;3.70;;;26.30;81.20;;;;;;4954995;29;20027;-71
2023/09/29 12:17:53;;;;;;;8.15;3.53;;;26.30;81.00;;;;;;4955222;29;20464;-71
2023/09/29 12:20:19;;;;;;;11.38;3.67;;;26.30;80.80;;;;;;4955036;29;20529;-72
2023/09/29 12:22:46;;;;;;;11.52;4.45;;;;;;;;;;4955783;29;20102;-71
2023/09/29 12:25:13;;;;;;;25.70;4.30;;;26.30;69.00;;;;;;4954861;29;20483;-72
2023/09/29 12:27:41;;;;;;;13.27;4.10;;;26.30;69.80;;;;;;4955061;29;20098;-71
2023/09/29 12:30:09;;;;;;;12.65;3.75;;;26.30;69.30;;;;;;4955083;29;20102;-72
2023/09/29 12:32:36;;;;;;;11.25;4.25;;;26.30;67.90;;;;;;4955047;29;20031;-71
2023/09/29 12:35:03;;;;;;;14.27;3.75;;;26.20;67.90;;;;;;4954522;29;20023;-71
2023/09/29 12:37:29;;;;;;;6.38;2.95;;;26.20;68.40;;;;;;4955038;29;20079;-72
2023/09/29 12:39:55;;;;;;;12.63;3.72;;;26.20;68.90;;;;;;4954917;29;20031;-71
2023/09/29 12:42:20;;;;;;;8.10;4.10;;;26.30;70.20;;;;;;4954844;29;20035;-71
2023/09/29 12:44:47;;;;;;;12.50;3.70;;;26.30;69.30;;;;;;4954250;29;20142;-71
2023/09/29 12:47:16;;;;;;;10.30;4.32;;;26.30;69.10;;;;;;4942637;29;20138;-71
2023/09/29 12:49:42;;;;;;;9.18;3.22;;;26.40;69.60;;;;;;4954741;29;20114;-71
2023/09/29 12:52:08;;;;;;;14.65;4.28;;;26.40;67.40;;;;;;4954740;29;20134;-72